• Join FlightAware (Why Join?)
  • Login
  • US Flag 
09:08PM EST


 

Airport Tracker/Info


-or-


 

Live Flight TrackerFlight Track Log ✈ N340WJ ✈ 29-Apr-2013 ✈ KANE - KFAR

Flight Track Log - Related Links

Times and Time Zones

All times are in EDT time to prevent confusion due to time zone crossing. See the N340WJ flight status page for this flight to view local times or setup timezone preferences in your user account.

Time Position Orientation Groundspeed Altitude Reporting Facility
EDT Latitude Longitude Course Direction KTS MPH feet Rate Location/Type
05:03PM 45.1500 -93.1833 325° Northwest 133 153 1,800  Level Minneapolis TRACON
05:04PM 45.1833 -93.2167 325° Northwest 138 159 2,800 780 Climbing Minneapolis TRACON
05:05PM 45.1975 -93.2283 330° Northwest 141 162 3,000 180 Climbing Minneapolis Center
05:06PM 45.2208 -93.2808 302° West 157 181 3,100 420 Climbing Minneapolis Center
05:07PM 45.2472 -93.3297 307° West 155 178 3,900 780 Climbing Minneapolis Center
05:08PM 45.2678 -93.3719 305° West 134 154 4,800 780 Climbing Minneapolis Center
05:09PM 45.2917 -93.4172 307° West 142 163 5,500 600 Climbing Minneapolis Center
05:10PM 45.3214 -93.4756 306° West 152 175 6,100 240 Climbing Minneapolis Center
05:11PM 45.3508 -93.5339 306° West 180 207 6,100 300 Level Minneapolis Center
05:12PM 45.3789 -93.5894 306° West 173 199 6,800 660 Climbing Minneapolis Center
05:13PM 45.4044 -93.6392 306° West 158 182 7,500 660 Climbing Minneapolis Center
05:14PM 45.4297 -93.6886 306° West 157 181 8,200 720 Climbing Minneapolis Center
05:15PM 45.4586 -93.7481 305° West 152 175 9,100 720 Climbing Minneapolis Center
05:16PM 45.4836 -93.7975 306° West 155 178 9,700 480 Climbing Minneapolis Center
05:17PM 45.5100 -93.8503 306° West 164 189 10,100 180 Climbing Minneapolis Center
05:18PM 45.5392 -93.9081 306° West 181 208 10,100  Level Minneapolis Center
05:19PM 45.5678 -93.9653 306° West 179 206 10,100  Level Minneapolis Center
05:20PM 45.5964 -94.0239 305° West 180 207 10,100  Level Minneapolis Center
05:21PM 45.6322 -94.0936 306° West 180 207 10,100  Level Minneapolis Center
05:22PM 45.6606 -94.1525 305° West 180 207 10,100  Level Minneapolis Center
05:23PM 45.6906 -94.2100 303° West 179 206 10,100  Level Minneapolis Center
05:24PM 45.6930 -94.2228 303° West  Level FlightAware Approximate
05:24PM 45.7200 -94.2697 305° West 183 211 10,100  Level Minneapolis Center
05:25PM 45.7483 -94.3286 305° West 182 209 10,100  Level Minneapolis Center
05:26PM 45.7769 -94.3872 305° West 180 207 10,200  Climbing Minneapolis Center
05:27PM 45.8119 -94.4575 306° West 181 208 10,100 -60 Descending Minneapolis Center
05:28PM 45.8414 -94.5186 305° West 185 213 10,100  Level Minneapolis Center
05:30PM 45.8706 -94.5772 306° West 183 211 10,100  Level Minneapolis Center
05:31PM 45.8994 -94.6361 305° West 181 208 10,100  Level Minneapolis Center
05:32PM 45.9286 -94.6967 305° West 183 211 10,100  Level Minneapolis Center
05:33PM 45.9636 -94.7669 306° West 183 211 10,100  Level Minneapolis Center
05:34PM 45.9925 -94.8278 304° West 184 212 10,100  Level Minneapolis Center
05:35PM 46.0214 -94.8886 304° West 185 213 10,100  Level Minneapolis Center
05:36PM 46.0500 -94.9489 304° West 183 211 10,200  Climbing Minneapolis Center
05:37PM 46.0797 -95.0103 305° West 187 215 10,100 -60 Descending Minneapolis Center
05:38PM 46.1139 -95.0792 306° West 186 214 10,100  Level Minneapolis Center
05:39PM 46.1425 -95.1397 304° West 185 213 10,100  Level Minneapolis Center
05:40PM 46.1714 -95.2003 305° West 185 213 10,100  Level Minneapolis Center
05:41PM 46.2008 -95.2644 304° West 187 215 10,200  Climbing Minneapolis Center
05:42PM 46.2303 -95.3258 305° West 188 216 10,200 -60 Level Minneapolis Center
05:43PM 46.2536 -95.3753 304° West 187 215 10,100 -60 Descending Minneapolis Center
05:44PM 46.2933 -95.4614 304° West 186 214 10,100  Level Minneapolis Center
05:45PM 46.3219 -95.5208 305° West 184 212 10,100  Level Minneapolis Center
05:46PM 46.3503 -95.5808 304° West 180 207 10,200  Climbing Minneapolis Center
05:47PM 46.3775 -95.6408 303° West 181 208 10,200 -60 Level Minneapolis Center
05:48PM 46.4067 -95.6989 306° West 178 205 10,100  Descending Minneapolis Center
05:49PM 46.4350 -95.7581 305° West 179 206 10,200 -180 Climbing Minneapolis Center
05:50PM 46.4639 -95.8247 302° West 175 201 9,800 -480 Descending Minneapolis Center
05:51PM 46.4917 -95.8831 305° West 182 209 9,300 -540 Descending Minneapolis Center
05:52PM 46.5219 -95.9525 302° West 195 224 8,800 -480 Descending Minneapolis Center
05:53PM 46.5531 -96.0167 305° West 188 216 8,300 -540 Descending Minneapolis Center
05:54PM 46.5906 -96.0925 306° West 191 220 7,700 -600 Descending Minneapolis Center
05:55PM 46.6272 -96.1558 310° West 196 226 7,100 -540 Descending Minneapolis Center
05:57PM 46.6636 -96.2189 310° West 197 227 6,600 -540 Descending Minneapolis Center
05:58PM 46.7008 -96.2825 310° West 199 229 6,000 -600 Descending Minneapolis Center
05:59PM 46.7389 -96.3481 310° West 201 231 5,400 -540 Descending Minneapolis Center
06:00PM 46.7761 -96.4125 310° West 202 232 5,000 -240 Descending Minneapolis Center
06:01PM 46.8078 -96.4656 311° West 186 214 5,000  Level Minneapolis Center
06:02PM 46.8411 -96.5233 310° West 178 205 5,000  Level Minneapolis Center
06:03PM 46.8736 -96.5803 310° West 176 203 5,000 -120 Level Minneapolis Center
06:04PM 46.8989 -96.6239 310° West 173 199 4,800 -540 Descending Minneapolis Center
06:05PM 46.9433 -96.7039 309° West 197 227 3,900 -720 Descending Minneapolis Center
06:06PM 46.9597 -96.7614 293° West 140 161 3,300 -1,020 Descending Minneapolis Center
06:07PM 46.9636 -96.8103 277° West 126 145 1,900 -1,380 Descending Minneapolis Center